createdAt,value
2018-09-24T00:00:26.577Z,2.17
2018-09-24T00:02:59.757Z,2.50
2018-09-24T00:05:33.140Z,2.60
2018-09-24T00:08:06.329Z,2.63
2018-09-24T00:10:39.526Z,2.70
2018-09-24T00:13:12.925Z,2.40
2018-09-24T00:15:46.155Z,2.70
2018-09-24T00:18:19.732Z,3.30
2018-09-24T00:20:52.913Z,2.73
2018-09-24T00:23:27.521Z,3.10
2018-09-24T00:26:01.218Z,3.30
2018-09-24T00:28:34.187Z,2.83
2018-09-24T00:31:07.173Z,2.50
2018-09-24T00:33:40.571Z,2.73
2018-09-24T00:36:14.245Z,2.43
2018-09-24T00:38:47.867Z,2.90
2018-09-24T00:41:21.224Z,3.07
2018-09-24T00:43:54.806Z,3.20
2018-09-24T00:46:28.542Z,3.43
2018-09-24T00:49:02.186Z,3.60
2018-09-24T00:51:35.773Z,3.03
2018-09-24T00:54:09.390Z,3.80
2018-09-24T00:56:42.644Z,3.20
2018-09-24T00:59:16.109Z,4.30
2018-09-24T01:01:50.595Z,3.37
2018-09-24T01:04:23.868Z,3.00
2018-09-24T01:06:57.034Z,2.97
2018-09-24T01:09:30.092Z,3.63
2018-09-24T01:12:03.929Z,3.27
2018-09-24T01:14:37.343Z,4.00
2018-09-24T01:17:10.504Z,4.10
2018-09-24T01:23:05.666Z,3.17
2018-09-24T01:25:40.184Z,2.90
2018-09-24T01:28:14.190Z,2.90
2018-09-24T01:30:47.562Z,2.73
2018-09-24T01:33:21.032Z,3.60
2018-09-24T01:35:54.031Z,3.97
2018-09-24T01:41:48.776Z,3.43
2018-09-24T01:44:22.310Z,3.90
2018-09-24T01:46:55.306Z,4.53
2018-09-24T01:49:28.543Z,4.40
2018-09-24T01:52:02.620Z,4.50
2018-09-24T01:54:35.824Z,5.97
2018-09-24T01:57:16.774Z,8.57
2018-09-24T01:59:53.552Z,5.77
2018-09-24T02:02:25.971Z,2.87
2018-09-24T02:04:59.580Z,4.30
2018-09-24T02:07:32.523Z,5.70
2018-09-24T02:10:06.554Z,6.00
2018-09-24T02:12:41.510Z,6.93
2018-09-24T02:15:14.845Z,7.00
2018-09-24T02:17:48.315Z,5.97
2018-09-24T02:20:21.440Z,4.93
2018-09-24T02:22:54.336Z,5.93
2018-09-24T02:25:28.240Z,4.40
2018-09-24T02:28:03.491Z,4.00
2018-09-24T02:30:38.887Z,3.97
2018-09-24T02:33:14.773Z,5.30
2018-09-24T02:35:53.946Z,5.93
2018-09-24T02:38:28.935Z,6.80
2018-09-24T02:41:03.375Z,7.80
2018-09-24T02:43:36.195Z,7.70
2018-09-24T02:46:09.463Z,8.30
2018-09-24T02:48:43.717Z,7.60
2018-09-24T02:51:16.940Z,9.23
2018-09-24T02:57:20.460Z,7.03
2018-09-24T02:59:53.393Z,6.77
2018-09-24T03:02:26.279Z,7.27
2018-09-24T03:04:58.780Z,6.33
2018-09-24T03:07:30.874Z,6.27
2018-09-24T03:10:03.148Z,7.23
2018-09-24T03:15:57.351Z,6.17
2018-09-24T03:18:30.387Z,7.07
2018-09-24T03:21:02.985Z,7.10
2018-09-24T03:23:35.946Z,5.97
2018-09-24T03:26:08.359Z,4.57
2018-09-24T03:28:40.900Z,5.17
2018-09-24T03:31:13.951Z,5.70
2018-09-24T03:33:47.248Z,4.97
2018-09-24T03:36:21.778Z,5.80
2018-09-24T03:38:54.321Z,6.20
2018-09-24T03:41:26.853Z,5.17
2018-09-24T03:43:59.377Z,5.30
2018-09-24T03:46:31.944Z,4.37
2018-09-24T03:49:04.303Z,4.63
2018-09-24T03:51:36.635Z,5.30
2018-09-24T03:54:09.441Z,6.03
2018-09-24T03:56:41.856Z,5.00
2018-09-24T03:59:14.304Z,5.13
2018-09-24T04:01:46.706Z,5.07
2018-09-24T04:04:26.138Z,4.60
2018-09-24T04:07:03.007Z,4.60
2018-09-24T04:09:40.272Z,5.53
2018-09-24T04:12:19.413Z,5.57
2018-09-24T04:14:56.845Z,6.73
2018-09-24T04:17:35.064Z,5.93
2018-09-24T04:20:12.028Z,5.57
2018-09-24T04:22:50.335Z,6.97
2018-09-24T04:25:26.915Z,7.63
2018-09-24T04:28:04.458Z,8.57
2018-09-24T04:30:41.578Z,8.57
2018-09-24T04:33:18.241Z,7.17
2018-09-24T04:35:54.862Z,8.37
2018-09-24T04:38:31.467Z,10.33
2018-09-24T04:41:08.034Z,1.53
2018-09-24T04:43:44.734Z,2.10
2018-09-24T04:46:23.092Z,2.17
2018-09-24T04:49:00.697Z,1.93
2018-09-24T04:51:37.509Z,2.00
2018-09-24T04:54:14.112Z,3.13
2018-09-24T04:56:50.702Z,4.33
2018-09-24T05:02:50.898Z,3.47
2018-09-24T05:05:31.433Z,2.90
2018-09-24T05:08:14.476Z,4.20
2018-09-24T05:10:52.148Z,3.17
2018-09-24T05:13:29.832Z,4.20
2018-09-24T05:16:07.527Z,3.77
2018-09-24T05:18:44.896Z,3.70
2018-09-24T05:21:22.869Z,3.73
2018-09-24T05:24:00.389Z,3.73
2018-09-24T05:26:39.624Z,5.03
2018-09-24T05:29:17.305Z,5.80
2018-09-24T05:35:26.600Z,6.50
2018-09-24T05:38:03.883Z,7.10
2018-09-24T05:40:41.244Z,3.37
2018-09-24T05:43:18.690Z,3.83
2018-09-24T05:45:56.229Z,2.97
2018-09-24T05:48:33.700Z,3.37
2018-09-24T05:54:42.202Z,3.77
2018-09-24T05:57:19.031Z,7.57
2018-09-24T05:59:56.313Z,8.90
2018-09-24T06:02:33.507Z,9.53
2018-09-24T06:05:10.788Z,9.90
2018-09-24T06:07:47.628Z,7.63
2018-09-24T06:10:49.185Z,6.33
2018-09-24T06:13:26.596Z,4.10
2018-09-24T06:16:03.480Z,5.40
2018-09-24T06:18:40.374Z,5.30
2018-09-24T06:21:17.523Z,6.97
2018-09-24T06:23:54.395Z,6.80
2018-09-24T06:26:31.283Z,5.57
2018-09-24T06:29:08.200Z,4.83
2018-09-24T06:31:45.570Z,3.77
2018-09-24T06:34:22.576Z,3.13
2018-09-24T06:36:59.574Z,3.43
2018-09-24T06:42:57.637Z,2.87
2018-09-24T06:45:35.094Z,3.63
2018-09-24T06:48:12.438Z,3.73
2018-09-24T06:50:50.025Z,5.27
2018-09-24T06:53:27.098Z,9.97
2018-09-24T06:56:04.504Z,10.03
2018-09-24T06:58:42.573Z,9.87
2018-09-24T07:01:19.860Z,5.10
2018-09-24T07:03:57.411Z,4.90
2018-09-24T07:06:34.839Z,5.70
2018-09-24T07:09:14.085Z,5.73
2018-09-24T07:11:51.221Z,5.07
2018-09-24T07:14:29.291Z,5.60
2018-09-24T07:17:06.894Z,6.80
2018-09-24T07:19:45.666Z,9.10
2018-09-24T07:25:45.960Z,16.47
2018-09-24T07:28:24.850Z,25.00
2018-09-24T07:31:02.097Z,23.10
2018-09-24T07:33:40.993Z,22.73
2018-09-24T07:36:19.000Z,22.03
2018-09-24T07:38:56.705Z,16.73
2018-09-24T07:41:34.183Z,9.73
2018-09-24T07:44:13.175Z,8.70
2018-09-24T07:46:50.519Z,8.17
2018-09-24T07:49:28.293Z,6.43
2018-09-24T07:52:06.018Z,4.90
2018-09-24T07:54:43.859Z,5.17
2018-09-24T07:57:22.570Z,4.90
2018-09-24T07:59:59.845Z,5.67
2018-09-24T08:02:39.365Z,5.67
2018-09-24T08:05:16.505Z,6.00
2018-09-24T08:07:53.937Z,7.83
2018-09-24T08:10:33.027Z,9.67
2018-09-24T08:13:10.363Z,9.37
2018-09-24T08:15:47.911Z,8.63
2018-09-24T08:18:25.441Z,6.33
2018-09-24T08:21:02.944Z,5.17
2018-09-24T08:23:40.871Z,5.83
2018-09-24T08:26:18.181Z,6.00
2018-09-24T08:28:56.537Z,5.47
2018-09-24T08:31:33.805Z,5.53
2018-09-24T08:34:12.527Z,5.73
2018-09-24T08:36:50.116Z,5.70
2018-09-24T08:39:28.064Z,6.40
2018-09-24T08:42:05.344Z,6.90
2018-09-24T08:44:43.097Z,7.10
2018-09-24T08:47:22.998Z,8.03
2018-09-24T08:50:00.445Z,8.37
2018-09-24T08:52:41.615Z,8.93
2018-09-24T08:55:18.888Z,9.53
2018-09-24T08:57:56.844Z,9.57
2018-09-24T09:00:34.327Z,10.57
2018-09-24T09:03:12.232Z,11.13
2018-09-24T09:05:49.921Z,11.47
2018-09-24T09:08:27.417Z,13.13
2018-09-24T09:11:06.136Z,12.97
2018-09-24T09:13:43.591Z,12.67
2018-09-24T09:16:20.992Z,12.80
2018-09-24T09:18:58.476Z,11.33
2018-09-24T09:21:36.057Z,10.97
2018-09-24T09:24:12.434Z,12.27
2018-09-24T09:30:17.017Z,12.23
2018-09-24T09:32:54.751Z,13.13
2018-09-24T09:35:32.128Z,12.00
2018-09-24T09:38:09.687Z,11.80
2018-09-24T09:40:46.633Z,11.67
2018-09-24T09:43:24.017Z,11.60
2018-09-24T09:46:01.336Z,10.50
2018-09-24T09:48:38.463Z,9.03
2018-09-24T09:51:16.013Z,7.77
2018-09-24T09:53:52.842Z,7.23
2018-09-24T09:56:29.995Z,6.73
2018-09-24T09:59:07.260Z,7.10
2018-09-24T10:01:44.500Z,8.57
2018-09-24T10:04:21.687Z,6.30
2018-09-24T10:06:58.683Z,6.27
2018-09-24T10:09:35.257Z,6.40
2018-09-24T10:12:12.764Z,7.77
2018-09-24T10:14:49.453Z,6.43
2018-09-24T10:17:26.663Z,6.17
2018-09-24T10:20:05.492Z,6.23
2018-09-24T10:22:57.415Z,4.93
2018-09-24T10:25:35.040Z,5.17
2018-09-24T10:28:12.290Z,5.30
2018-09-24T10:30:49.619Z,4.80
2018-09-24T10:33:26.612Z,5.47
2018-09-24T10:36:03.982Z,4.70
2018-09-24T10:38:41.683Z,4.57
2018-09-24T10:41:19.095Z,4.33
2018-09-24T10:43:56.503Z,4.43
2018-09-24T10:46:33.756Z,3.87
2018-09-24T10:49:11.148Z,5.30
2018-09-24T10:51:48.639Z,4.00
2018-09-24T10:54:25.853Z,3.90
2018-09-24T10:57:03.465Z,3.10
2018-09-24T10:59:40.970Z,3.17
2018-09-24T11:02:18.587Z,3.20
2018-09-24T11:04:55.789Z,4.40
2018-09-24T11:07:33.107Z,5.40
2018-09-24T11:10:10.211Z,4.50
2018-09-24T11:12:47.841Z,4.63
2018-09-24T11:15:25.078Z,4.20
2018-09-24T11:18:02.258Z,4.60
2018-09-24T11:20:39.617Z,4.23
2018-09-24T11:23:17.205Z,4.77
2018-09-24T11:25:54.494Z,4.80
2018-09-24T11:28:31.524Z,4.53
2018-09-24T11:31:08.447Z,5.40
2018-09-24T11:33:45.774Z,6.20
2018-09-24T11:36:23.154Z,5.57
2018-09-24T11:39:02.165Z,5.60
2018-09-24T11:41:39.302Z,6.00
2018-09-24T11:44:16.883Z,6.17
2018-09-24T11:46:53.896Z,8.03
2018-09-24T11:52:52.996Z,9.07
2018-09-24T11:55:30.904Z,7.87
2018-09-24T11:58:07.564Z,8.13
2018-09-24T12:00:44.506Z,7.13
2018-09-24T12:03:22.316Z,6.87
2018-09-24T12:05:59.107Z,7.47
2018-09-24T12:08:35.993Z,7.70
2018-09-24T12:14:44.984Z,7.00
2018-09-24T12:17:23.507Z,6.87
2018-09-24T12:20:01.499Z,8.10
2018-09-24T12:22:38.860Z,8.20
2018-09-24T12:25:16.863Z,7.53
2018-09-24T12:27:57.120Z,7.20
2018-09-24T12:30:39.354Z,7.07
2018-09-24T12:33:17.192Z,7.03
2018-09-24T12:35:54.706Z,9.93
2018-09-24T12:38:32.534Z,12.90
2018-09-24T12:41:09.984Z,15.50
2018-09-24T12:43:48.557Z,11.00
2018-09-24T12:46:26.111Z,8.33
2018-09-24T12:49:03.717Z,8.03
2018-09-24T12:51:41.812Z,8.30
2018-09-24T12:54:19.449Z,6.97
2018-09-24T12:56:57.222Z,9.97
2018-09-24T12:59:36.101Z,8.47
2018-09-24T13:02:13.614Z,8.07
2018-09-24T13:04:51.228Z,11.27
2018-09-24T13:07:29.125Z,9.07
2018-09-24T13:10:06.532Z,7.10
2018-09-24T13:12:45.614Z,7.20
2018-09-24T13:15:23.349Z,9.20
2018-09-24T13:18:00.640Z,7.83
2018-09-24T13:20:38.259Z,7.23
2018-09-24T13:23:15.985Z,7.37
2018-09-24T13:25:53.588Z,8.53
2018-09-24T13:28:32.445Z,7.07
2018-09-24T13:31:10.040Z,6.77
2018-09-24T13:33:48.952Z,6.97
2018-09-24T13:36:27.095Z,5.37
2018-09-24T13:39:04.965Z,8.63
2018-09-24T13:41:42.525Z,6.30
2018-09-24T13:44:20.184Z,5.23
2018-09-24T13:46:57.857Z,5.87
2018-09-24T13:49:35.277Z,5.43
2018-09-24T13:52:12.778Z,4.30
2018-09-24T13:54:50.537Z,4.17
2018-09-24T13:57:28.188Z,5.73
2018-09-24T14:00:05.851Z,5.23
2018-09-24T14:02:43.645Z,4.80
2018-09-24T14:05:20.919Z,5.90
2018-09-24T14:11:19.562Z,4.63
2018-09-24T14:13:57.423Z,5.10
2018-09-24T14:16:34.455Z,5.03
2018-09-24T14:19:12.725Z,4.77
2018-09-24T14:21:50.082Z,4.60
2018-09-24T14:25:06.957Z,4.77
2018-09-24T14:27:58.835Z,4.50
2018-09-24T14:30:48.620Z,6.10
2018-09-24T14:33:42.647Z,6.13
2018-09-24T14:36:35.132Z,5.50
2018-09-24T14:39:27.326Z,5.03
2018-09-24T14:42:05.370Z,4.73
2018-09-24T14:44:42.398Z,4.67
2018-09-24T14:47:20.946Z,4.13
2018-09-24T14:49:58.231Z,4.87
2018-09-24T14:52:35.553Z,4.57
2018-09-24T14:55:12.944Z,4.63
2018-09-24T14:57:50.162Z,4.07
2018-09-24T15:00:27.583Z,4.07
2018-09-24T15:03:05.581Z,3.97
2018-09-24T15:05:44.025Z,3.30
2018-09-24T15:08:21.858Z,3.60
2018-09-24T15:10:59.144Z,4.50
2018-09-24T15:13:37.378Z,3.70
2018-09-24T15:16:14.175Z,3.80
2018-09-24T15:18:51.154Z,4.60
2018-09-24T15:21:30.820Z,3.67
2018-09-24T15:24:10.907Z,4.57
2018-09-24T15:26:48.556Z,4.80
2018-09-24T15:29:25.719Z,4.27
2018-09-24T15:32:02.848Z,5.10
2018-09-24T15:34:39.703Z,4.30
2018-09-24T15:37:17.148Z,4.70
2018-09-24T15:39:55.536Z,4.63
2018-09-24T15:42:32.515Z,5.67
2018-09-24T15:45:09.929Z,7.27
2018-09-24T15:47:47.023Z,3.67
2018-09-24T15:50:24.454Z,3.90
2018-09-24T15:53:01.437Z,6.43
2018-09-24T15:55:38.698Z,8.70
2018-09-24T15:58:16.126Z,4.33
2018-09-24T16:00:53.086Z,11.90
2018-09-24T16:03:30.532Z,3.90
2018-09-24T16:06:08.504Z,3.52
2018-09-24T16:08:46.808Z,2.75
2018-09-24T16:11:25.032Z,2.80
2018-09-24T16:14:02.225Z,3.63
2018-09-24T16:17:11.706Z,4.60
2018-09-24T16:19:48.383Z,3.37
2018-09-24T16:22:25.170Z,3.37
2018-09-24T16:25:01.663Z,2.60
2018-09-24T16:27:38.725Z,4.22
2018-09-24T16:30:15.512Z,2.98
2018-09-24T16:32:52.910Z,4.37
2018-09-24T16:35:31.992Z,2.52
2018-09-24T16:38:08.627Z,4.00
2018-09-24T16:40:48.812Z,2.67
2018-09-24T16:46:37.191Z,2.40
2018-09-24T17:02:08.110Z,3.27
2018-09-24T17:04:48.951Z,2.98
2018-09-24T17:07:34.880Z,2.67
2018-09-24T17:10:17.735Z,2.67
2018-09-24T17:12:57.884Z,3.20
2018-09-24T17:15:40.644Z,2.77
2018-09-24T17:18:36.857Z,2.87
2018-09-24T17:24:12.141Z,4.55
2018-09-24T17:27:06.814Z,3.00
2018-09-24T17:30:06.219Z,3.52
2018-09-24T17:33:05.033Z,2.90
2018-09-24T17:35:51.010Z,2.75
2018-09-24T17:42:04.411Z,5.47
2018-09-24T17:44:58.686Z,2.52
2018-09-24T17:47:48.227Z,3.00
2018-09-24T17:50:36.662Z,2.92
2018-09-24T17:53:30.848Z,2.35
2018-09-24T17:59:24.068Z,3.70
2018-09-24T18:02:18.202Z,2.67
2018-09-24T18:05:09.558Z,2.60
2018-09-24T18:08:04.739Z,3.20
2018-09-24T18:10:58.867Z,2.80
2018-09-24T18:13:52.724Z,2.52
2018-09-24T18:19:36.057Z,2.52
2018-09-24T18:22:29.283Z,2.33
2018-09-24T18:28:43.182Z,2.60
2018-09-24T18:31:24.907Z,3.10
2018-09-24T18:34:14.157Z,6.12
2018-09-24T18:37:05.092Z,11.10
2018-09-24T18:39:58.903Z,31.55
2018-09-24T18:42:52.383Z,22.85
2018-09-24T18:45:44.971Z,27.22
2018-09-24T18:48:41.772Z,8.18
2018-09-24T18:51:26.918Z,3.60
2018-09-24T18:54:41.061Z,44.13
2018-09-24T18:57:18.998Z,6.08
2018-09-24T18:59:56.729Z,3.60
2018-09-24T19:02:35.044Z,9.13
2018-09-24T19:05:23.901Z,4.37
2018-09-24T19:08:16.549Z,13.43
2018-09-24T19:11:12.110Z,22.35
2018-09-24T19:13:58.865Z,2.80
2018-09-24T19:16:52.560Z,17.82
2018-09-24T19:19:46.115Z,14.78
2018-09-24T19:22:36.670Z,24.23
2018-09-24T19:25:27.178Z,7.30
2018-09-24T19:28:21.754Z,3.80
2018-09-24T19:34:09.430Z,3.12
2018-09-24T19:37:04.098Z,3.12
2018-09-24T19:40:07.579Z,2.70
2018-09-24T19:42:44.863Z,2.50
2018-09-24T19:45:22.056Z,2.60
2018-09-24T19:47:59.647Z,2.90
2018-09-24T19:50:36.920Z,3.00
2018-09-24T19:53:13.858Z,2.83
2018-09-24T19:55:51.764Z,3.62
2018-09-24T19:58:28.832Z,2.75
2018-09-24T20:01:06.092Z,2.60
2018-09-24T20:03:43.403Z,4.08
2018-09-24T20:06:21.314Z,2.42
2018-09-24T20:08:58.868Z,2.50
2018-09-24T20:11:36.004Z,2.30
2018-09-24T20:14:13.671Z,1.92
2018-09-24T20:16:51.425Z,2.90
2018-09-24T20:19:28.883Z,2.55
2018-09-24T20:22:06.280Z,3.83
2018-09-24T20:24:43.559Z,3.50
2018-09-24T20:27:22.864Z,3.33
2018-09-24T20:29:59.718Z,3.12
2018-09-24T20:32:36.983Z,3.12
2018-09-24T20:35:14.744Z,2.95
2018-09-24T20:37:52.165Z,2.52
2018-09-24T20:40:29.282Z,2.95
2018-09-24T20:43:06.632Z,3.02
2018-09-24T20:45:44.026Z,2.17
2018-09-24T20:48:22.046Z,3.05
2018-09-24T20:51:25.922Z,3.12
2018-09-24T20:54:03.759Z,3.90
2018-09-24T20:56:40.410Z,3.55
2018-09-24T20:59:17.933Z,4.80
2018-09-24T21:01:54.824Z,3.10
2018-09-24T21:04:32.693Z,3.87
2018-09-24T21:07:10.182Z,3.22
2018-09-24T21:09:47.080Z,3.22
2018-09-24T21:12:24.503Z,2.95
2018-09-24T21:15:07.984Z,4.62
2018-09-24T21:17:46.213Z,3.70
2018-09-24T21:20:26.914Z,3.60
2018-09-24T21:23:04.107Z,4.60
2018-09-24T21:25:42.310Z,4.22
2018-09-24T21:28:19.477Z,4.78
2018-09-24T21:30:56.327Z,4.40
2018-09-24T21:33:36.185Z,3.65
2018-09-24T21:36:19.920Z,4.12
2018-09-24T21:39:09.355Z,7.20
2018-09-24T21:41:47.174Z,3.83
2018-09-24T21:44:23.888Z,5.03
2018-09-24T21:47:01.260Z,4.00
2018-09-24T21:49:38.557Z,4.37
2018-09-24T21:55:37.091Z,4.87
2018-09-24T21:58:14.948Z,4.58
2018-09-24T22:00:52.536Z,5.00
2018-09-24T22:03:29.918Z,4.20
2018-09-24T22:06:08.343Z,5.50
2018-09-24T22:08:46.985Z,3.67
2018-09-24T22:11:24.460Z,3.33
2018-09-24T22:14:02.291Z,3.65
2018-09-24T22:16:40.116Z,3.80
2018-09-24T22:19:17.647Z,3.77
2018-09-24T22:21:55.033Z,5.33
2018-09-24T22:24:32.395Z,5.47
2018-09-24T22:27:09.784Z,4.40
2018-09-24T22:29:47.458Z,3.70
2018-09-24T22:32:25.250Z,4.93
2018-09-24T22:35:02.816Z,5.07
2018-09-24T22:37:40.155Z,4.40
2018-09-24T22:40:17.848Z,4.33
2018-09-24T22:43:02.766Z,3.93
2018-09-24T22:45:40.513Z,4.37
2018-09-24T22:48:18.000Z,3.93
2018-09-24T22:50:55.311Z,4.37
2018-09-24T22:53:32.662Z,4.20
2018-09-24T22:56:10.536Z,3.73
2018-09-24T22:58:48.219Z,4.10
2018-09-24T23:01:25.619Z,4.37
2018-09-24T23:04:03.000Z,3.93
2018-09-24T23:06:41.030Z,5.03
2018-09-24T23:09:18.523Z,5.20
2018-09-24T23:11:58.152Z,4.50
2018-09-24T23:14:35.632Z,4.30
2018-09-24T23:17:13.185Z,3.67
2018-09-24T23:19:50.938Z,4.87
2018-09-24T23:22:28.307Z,4.43
2018-09-24T23:25:05.805Z,4.33
2018-09-24T23:27:43.546Z,5.10
2018-09-24T23:30:21.108Z,4.53
2018-09-24T23:32:58.680Z,4.83
2018-09-24T23:35:36.338Z,4.80
2018-09-24T23:38:13.794Z,4.50
2018-09-24T23:40:51.850Z,5.40
2018-09-24T23:43:29.528Z,4.70
2018-09-24T23:46:07.262Z,5.30
2018-09-24T23:48:44.838Z,5.37
2018-09-24T23:54:47.941Z,5.63
2018-09-24T23:57:25.323Z,5.07
